createdAt,value
2022-09-26T00:01:07.080Z,14.57
2022-09-26T00:02:08.907Z,14.42
2022-09-26T00:03:11.558Z,14.68
2022-09-26T00:04:32.600Z,15.14
2022-09-26T00:05:34.771Z,15.75
2022-09-26T00:06:36.934Z,16.12
2022-09-26T00:07:38.587Z,16.45
2022-09-26T00:08:40.607Z,16.70
2022-09-26T00:09:42.263Z,16.91
2022-09-26T00:10:43.904Z,16.99
2022-09-26T00:11:46.285Z,16.74
2022-09-26T00:12:48.041Z,16.28
2022-09-26T00:13:53.474Z,15.80
2022-09-26T00:14:55.190Z,15.33
2022-09-26T00:15:57.824Z,14.92
2022-09-26T00:17:00.045Z,14.56
2022-09-26T00:18:01.836Z,14.38
2022-09-26T00:19:04.791Z,14.61
2022-09-26T00:20:07.001Z,15.06
2022-09-26T00:21:14.551Z,15.53
2022-09-26T00:22:16.262Z,15.98
2022-09-26T00:23:18.414Z,16.31
2022-09-26T00:24:20.101Z,16.58
2022-09-26T00:25:21.802Z,16.81
2022-09-26T00:26:26.811Z,16.92
2022-09-26T00:27:28.449Z,16.72
2022-09-26T00:28:30.497Z,16.30
2022-09-26T00:29:32.116Z,15.84
2022-09-26T00:30:37.018Z,15.39
2022-09-26T00:31:44.295Z,14.97
2022-09-26T00:32:46.510Z,14.60
2022-09-26T00:33:48.374Z,14.30
2022-09-26T00:34:50.644Z,14.28
2022-09-26T00:35:56.821Z,14.61
2022-09-26T00:36:59.013Z,15.12
2022-09-26T00:38:00.702Z,15.58
2022-09-26T00:39:02.577Z,15.96
2022-09-26T00:40:04.968Z,16.27
2022-09-26T00:41:07.726Z,16.53
2022-09-26T00:42:14.990Z,16.73
2022-09-26T00:43:32.139Z,16.68
2022-09-26T00:44:50.094Z,16.20
2022-09-26T00:45:51.858Z,15.59
2022-09-26T00:46:53.619Z,15.13
2022-09-26T00:48:03.825Z,14.73
2022-09-26T00:49:23.518Z,14.33
2022-09-26T00:50:31.892Z,14.18
2022-09-26T00:51:39.499Z,14.52
2022-09-26T00:52:49.347Z,15.04
2022-09-26T00:53:54.055Z,15.54
2022-09-26T00:55:01.346Z,15.93
2022-09-26T00:56:11.235Z,16.26
2022-09-26T00:57:19.224Z,16.53
2022-09-26T00:58:24.531Z,16.64
2022-09-26T00:59:35.539Z,16.37
2022-09-26T01:00:42.368Z,15.85
2022-09-26T01:01:45.234Z,15.33
2022-09-26T01:02:48.617Z,14.89
2022-09-26T01:03:52.045Z,14.50
2022-09-26T01:04:56.538Z,14.16
2022-09-26T01:06:00.884Z,14.00
2022-09-26T01:07:08.611Z,14.26
2022-09-26T01:08:13.264Z,14.75
2022-09-26T01:09:16.802Z,15.23
2022-09-26T01:10:18.724Z,15.64
2022-09-26T01:11:21.823Z,15.96
2022-09-26T01:12:23.967Z,16.25
2022-09-26T01:13:27.027Z,16.47
2022-09-26T01:14:28.797Z,16.47
2022-09-26T01:15:30.535Z,16.15
2022-09-26T01:16:34.389Z,15.70
2022-09-26T01:17:44.333Z,15.24
2022-09-26T01:18:47.833Z,14.77
2022-09-26T01:20:10.094Z,14.40
2022-09-26T01:21:36.228Z,13.98
2022-09-26T01:23:06.078Z,14.05
2022-09-26T01:24:37.876Z,14.71
2022-09-26T01:26:17.404Z,15.41
2022-09-26T01:27:42.927Z,16.00
2022-09-26T01:29:27.986Z,16.40
2022-09-26T01:30:50.932Z,16.28
2022-09-26T01:32:50.403Z,15.71
2022-09-26T01:34:24.475Z,14.84
2022-09-26T01:35:55.350Z,14.27
2022-09-26T01:37:22.971Z,13.82
2022-09-26T01:38:43.238Z,13.91
2022-09-26T01:40:02.536Z,14.48
2022-09-26T01:41:28.414Z,15.10
2022-09-26T01:43:13.112Z,15.64
2022-09-26T01:44:46.759Z,16.13
2022-09-26T01:46:13.603Z,16.33
2022-09-26T01:47:25.097Z,15.90
2022-09-26T01:48:44.461Z,15.38
2022-09-26T01:50:06.420Z,14.81
2022-09-26T01:51:36.386Z,14.30
2022-09-26T01:53:13.555Z,13.81
2022-09-26T01:54:23.274Z,13.71
2022-09-26T01:55:36.128Z,14.14
2022-09-26T01:56:42.275Z,14.68
2022-09-26T01:58:10.795Z,15.14
2022-09-26T01:59:33.344Z,15.63
2022-09-26T02:00:40.955Z,15.98
2022-09-26T02:01:47.334Z,16.09
2022-09-26T02:02:51.096Z,15.83
2022-09-26T02:04:03.204Z,15.34
2022-09-26T02:05:12.027Z,14.80
2022-09-26T02:06:23.064Z,14.31
2022-09-26T02:07:39.059Z,13.87
2022-09-26T02:08:46.950Z,13.49
2022-09-26T02:10:02.660Z,13.58
2022-09-26T02:11:13.609Z,14.07
2022-09-26T02:12:32.876Z,14.59
2022-09-26T02:13:44.597Z,15.08
2022-09-26T02:14:51.241Z,15.46
2022-09-26T02:16:01.037Z,15.74
2022-09-26T02:17:11.939Z,15.98
2022-09-26T02:18:39.533Z,16.15
2022-09-26T02:19:59.989Z,15.84
2022-09-26T02:21:07.806Z,15.23
2022-09-26T02:22:10.421Z,14.69
2022-09-26T02:23:13.889Z,14.25
2022-09-26T02:24:16.040Z,13.86
2022-09-26T02:25:18.053Z,13.56
2022-09-26T02:26:20.239Z,13.61
2022-09-26T02:27:22.410Z,14.00
2022-09-26T02:28:24.137Z,14.48
2022-09-26T02:29:26.344Z,14.93
2022-09-26T02:30:29.320Z,15.32
2022-09-26T02:31:36.915Z,15.64
2022-09-26T02:32:40.543Z,15.91
2022-09-26T02:33:42.434Z,16.11
2022-09-26T02:34:48.278Z,16.05
2022-09-26T02:35:55.849Z,15.67
2022-09-26T02:37:01.256Z,15.14
2022-09-26T02:38:06.929Z,14.67
2022-09-26T02:39:11.824Z,14.26
2022-09-26T02:40:56.514Z,13.74
2022-09-26T02:42:13.281Z,13.55
2022-09-26T02:44:03.337Z,13.87
2022-09-26T02:45:23.597Z,14.73
2022-09-26T02:46:53.700Z,15.30
2022-09-26T02:48:14.055Z,15.78
2022-09-26T02:49:45.359Z,15.97
2022-09-26T02:51:00.794Z,15.53
2022-09-26T02:52:36.029Z,14.95
2022-09-26T02:53:55.821Z,14.25
2022-09-26T02:55:21.995Z,13.68
2022-09-26T02:56:55.450Z,13.33
2022-09-26T02:58:18.730Z,13.16
2022-09-26T02:59:35.615Z,13.64
2022-09-26T03:01:05.907Z,14.24
2022-09-26T03:02:21.652Z,14.83
2022-09-26T03:04:04.849Z,15.31
2022-09-26T03:05:17.766Z,15.53
2022-09-26T03:06:28.129Z,15.26
2022-09-26T03:07:48.824Z,14.74
2022-09-26T03:08:55.085Z,14.11
2022-09-26T03:10:03.639Z,13.65
2022-09-26T03:11:10.854Z,13.23
2022-09-26T03:12:13.998Z,12.89
2022-09-26T03:13:18.461Z,12.71
2022-09-26T03:14:21.244Z,12.95
2022-09-26T03:15:27.521Z,13.41
2022-09-26T03:16:35.720Z,13.94
2022-09-26T03:17:44.604Z,14.42
2022-09-26T03:19:05.778Z,14.82
2022-09-26T03:20:14.856Z,15.17
2022-09-26T03:21:18.362Z,15.36
2022-09-26T03:22:20.085Z,15.22
2022-09-26T03:23:24.466Z,14.81
2022-09-26T03:24:27.747Z,14.30
2022-09-26T03:25:30.076Z,13.83
2022-09-26T03:26:41.987Z,13.36
2022-09-26T03:27:46.305Z,13.01
2022-09-26T03:28:48.046Z,12.78
2022-09-26T03:29:50.631Z,12.94
2022-09-26T03:30:55.882Z,13.39
2022-09-26T03:32:01.763Z,13.92
2022-09-26T03:33:03.681Z,14.36
2022-09-26T03:34:05.638Z,14.74
2022-09-26T03:35:08.811Z,15.04
2022-09-26T03:36:10.475Z,15.25
2022-09-26T03:37:12.409Z,15.13
2022-09-26T03:38:14.634Z,14.72
2022-09-26T03:39:21.775Z,14.22
2022-09-26T03:40:42.336Z,13.68
2022-09-26T03:42:10.008Z,13.13
2022-09-26T03:43:13.499Z,12.79
2022-09-26T03:44:15.951Z,12.59
2022-09-26T03:45:40.541Z,12.92
2022-09-26T03:46:52.317Z,13.48
2022-09-26T03:47:57.693Z,13.98
2022-09-26T03:48:59.652Z,14.44
2022-09-26T03:50:01.602Z,14.79
2022-09-26T03:51:09.254Z,15.07
2022-09-26T03:52:12.602Z,15.14
2022-09-26T03:53:14.580Z,14.82
2022-09-26T03:54:16.620Z,14.35
2022-09-26T03:55:18.554Z,13.87
2022-09-26T03:56:21.069Z,13.42
2022-09-26T03:57:23.117Z,13.03
2022-09-26T03:58:28.395Z,12.67
2022-09-26T03:59:30.370Z,12.37
2022-09-26T04:00:32.280Z,12.26
2022-09-26T04:01:34.112Z,12.52
2022-09-26T04:02:36.531Z,12.99
2022-09-26T04:03:50.847Z,13.52
2022-09-26T04:04:54.087Z,13.96
2022-09-26T04:05:55.809Z,14.30
2022-09-26T04:06:58.961Z,14.56
2022-09-26T04:08:03.036Z,14.76
2022-09-26T04:09:05.355Z,14.66
2022-09-26T04:10:07.785Z,14.27
2022-09-26T04:11:12.484Z,13.77
2022-09-26T04:12:14.708Z,13.29
2022-09-26T04:13:46.501Z,12.88
2022-09-26T04:14:40.108Z,12.43
2022-09-26T04:15:42.102Z,12.27
2022-09-26T04:16:47.534Z,12.54
2022-09-26T04:18:01.919Z,13.12
2022-09-26T04:19:04.221Z,13.61
2022-09-26T04:20:06.391Z,14.03
2022-09-26T04:21:11.594Z,14.39
2022-09-26T04:22:13.320Z,14.69
2022-09-26T04:23:15.670Z,14.92
2022-09-26T04:24:17.447Z,14.92
2022-09-26T04:25:19.100Z,14.61
2022-09-26T04:26:24.253Z,14.13
2022-09-26T04:27:28.802Z,13.62
2022-09-26T04:28:33.309Z,13.17
2022-09-26T04:29:35.011Z,12.78
2022-09-26T04:30:43.103Z,12.44
2022-09-26T04:31:45.982Z,12.41
2022-09-26T04:32:48.415Z,12.77
2022-09-26T04:34:02.278Z,13.36
2022-09-26T04:35:04.198Z,13.85
2022-09-26T04:36:09.353Z,14.29
2022-09-26T04:37:12.141Z,14.66
2022-09-26T04:38:13.992Z,14.95
2022-09-26T04:39:15.843Z,15.18
2022-09-26T04:40:17.605Z,15.14
2022-09-26T04:41:30.356Z,14.72
2022-09-26T04:42:36.980Z,14.25
2022-09-26T04:43:40.260Z,13.78
2022-09-26T04:44:44.886Z,13.38
2022-09-26T04:45:46.724Z,13.06
2022-09-26T04:46:48.745Z,12.86
2022-09-26T04:47:51.232Z,13.05
2022-09-26T04:49:02.540Z,13.58
2022-09-26T04:50:05.070Z,14.10
2022-09-26T04:51:07.926Z,14.58
2022-09-26T04:52:09.702Z,14.98
2022-09-26T04:53:12.381Z,15.33
2022-09-26T04:54:20.468Z,15.64
2022-09-26T04:55:22.949Z,15.80
2022-09-26T04:56:28.035Z,15.62
2022-09-26T04:57:29.868Z,15.18
2022-09-26T04:58:32.674Z,14.72
2022-09-26T04:59:34.450Z,14.30
2022-09-26T05:00:47.783Z,13.92
2022-09-26T05:01:51.421Z,13.55
2022-09-26T05:02:59.788Z,13.43
2022-09-26T05:04:01.781Z,13.71
2022-09-26T05:05:06.830Z,14.19
2022-09-26T05:06:13.581Z,14.68
2022-09-26T05:07:16.344Z,15.08
2022-09-26T05:08:18.109Z,15.39
2022-09-26T05:09:20.727Z,15.62
2022-09-26T05:10:28.750Z,15.84
2022-09-26T05:11:34.273Z,15.79
2022-09-26T05:12:36.018Z,15.40
2022-09-26T05:13:38.850Z,14.91
2022-09-26T05:14:44.347Z,14.41
2022-09-26T05:15:45.983Z,13.95
2022-09-26T05:16:47.981Z,13.56
2022-09-26T05:17:57.552Z,13.23
2022-09-26T05:18:59.525Z,12.99
2022-09-26T05:20:04.498Z,13.17
2022-09-26T05:21:56.145Z,14.01
2022-09-26T05:22:59.032Z,14.46
2022-09-26T05:24:19.560Z,14.81
2022-09-26T05:25:40.412Z,15.21
2022-09-26T05:26:49.367Z,15.51
2022-09-26T05:27:53.512Z,15.50
2022-09-26T05:29:07.715Z,15.15
2022-09-26T05:30:17.809Z,14.50
2022-09-26T05:31:19.816Z,14.02
2022-09-26T05:32:22.256Z,13.60
2022-09-26T05:33:25.297Z,13.24
2022-09-26T05:34:27.305Z,13.02
2022-09-26T05:35:29.146Z,13.18
2022-09-26T05:36:31.183Z,13.60
2022-09-26T05:37:33.634Z,14.09
2022-09-26T05:38:35.540Z,14.52
2022-09-26T05:39:56.166Z,14.86
2022-09-26T05:40:58.146Z,15.24
2022-09-26T05:42:01.122Z,15.47
2022-09-26T05:43:03.621Z,15.68
2022-09-26T05:44:05.417Z,15.82
2022-09-26T05:45:13.015Z,15.66
2022-09-26T05:46:16.689Z,15.22
2022-09-26T05:47:22.392Z,14.72
2022-09-26T05:48:25.485Z,14.27
2022-09-26T05:49:27.804Z,13.86
2022-09-26T05:50:29.731Z,13.51
2022-09-26T05:51:33.498Z,13.43
2022-09-26T05:52:39.448Z,13.74
2022-09-26T05:53:44.276Z,14.24
2022-09-26T05:54:47.648Z,14.74
2022-09-26T05:56:48.751Z,15.45
2022-09-26T05:58:10.030Z,15.80
2022-09-26T05:59:46.942Z,16.14
2022-09-26T06:01:17.441Z,16.14
2022-09-26T06:02:21.093Z,15.74
2022-09-26T06:03:46.788Z,15.08
2022-09-26T06:04:54.052Z,14.60
2022-09-26T06:06:44.281Z,13.98
2022-09-26T06:07:47.150Z,13.89
2022-09-26T06:09:07.487Z,14.34
2022-09-26T06:10:41.496Z,15.10
2022-09-26T06:11:43.184Z,15.54
2022-09-26T06:12:50.905Z,15.92
2022-09-26T06:13:53.578Z,16.24
2022-09-26T06:14:55.268Z,16.49
2022-09-26T06:16:00.557Z,16.70
2022-09-26T06:17:02.330Z,16.72
2022-09-26T06:18:05.243Z,16.41
2022-09-26T06:19:07.715Z,15.96
2022-09-26T06:20:10.807Z,15.49
2022-09-26T06:21:15.086Z,15.07
2022-09-26T06:22:16.779Z,14.69
2022-09-26T06:23:18.515Z,14.40
2022-09-26T06:24:21.256Z,14.40
2022-09-26T06:25:26.013Z,14.78
2022-09-26T06:26:30.686Z,15.26
2022-09-26T06:27:34.931Z,15.74
2022-09-26T06:28:38.981Z,16.12
2022-09-26T06:29:40.873Z,16.43
2022-09-26T06:30:42.625Z,16.69
2022-09-26T06:31:46.995Z,16.90
2022-09-26T06:32:53.272Z,16.96
2022-09-26T06:34:15.707Z,16.52
2022-09-26T06:36:15.850Z,15.59
2022-09-26T06:37:17.514Z,15.15
2022-09-26T06:38:19.187Z,14.77
2022-09-26T06:39:20.910Z,14.46
2022-09-26T06:40:22.745Z,14.41
2022-09-26T06:41:26.518Z,14.74
2022-09-26T06:42:28.203Z,15.23
2022-09-26T06:43:49.938Z,15.81
2022-09-26T06:45:10.672Z,16.27
2022-09-26T06:47:05.433Z,16.76
2022-09-26T06:48:13.211Z,17.00
2022-09-26T06:49:30.952Z,17.20
2022-09-26T06:50:37.845Z,17.16
2022-09-26T06:51:39.490Z,16.78
2022-09-26T06:52:44.085Z,16.30
2022-09-26T06:53:46.877Z,15.80
2022-09-26T06:54:56.701Z,15.33
2022-09-26T06:55:59.490Z,14.93
2022-09-26T06:57:01.549Z,14.71
2022-09-26T06:58:03.635Z,14.89
2022-09-26T06:59:12.992Z,15.37
2022-09-26T07:00:23.486Z,15.88
2022-09-26T07:02:06.350Z,16.51
2022-09-26T07:03:26.833Z,16.89
2022-09-26T07:04:38.952Z,17.16
2022-09-26T07:06:03.323Z,17.43
2022-09-26T07:07:05.618Z,17.62
2022-09-26T07:08:07.391Z,17.70
2022-09-26T07:09:12.240Z,17.49
2022-09-26T07:10:26.280Z,16.98
2022-09-26T07:11:56.624Z,16.48
2022-09-26T07:13:05.843Z,15.99
2022-09-26T07:14:07.582Z,15.68
2022-09-26T07:15:15.398Z,15.70
2022-09-26T07:16:18.147Z,16.12
2022-09-26T07:18:19.190Z,16.99
2022-09-26T07:19:35.610Z,17.43
2022-09-26T07:20:45.426Z,17.74
2022-09-26T07:22:05.537Z,18.06
2022-09-26T07:23:16.865Z,18.28
2022-09-26T07:24:19.888Z,18.30
2022-09-26T07:25:22.182Z,17.98
2022-09-26T07:26:24.891Z,17.52
2022-09-26T07:27:26.933Z,17.05
2022-09-26T07:28:29.275Z,16.62
2022-09-26T07:29:32.338Z,16.24
2022-09-26T07:30:34.515Z,15.93
2022-09-26T07:31:46.329Z,15.94
2022-09-26T07:33:03.708Z,16.38
2022-09-26T07:34:25.218Z,17.02
2022-09-26T07:35:27.368Z,17.45
2022-09-26T07:36:29.283Z,17.80
2022-09-26T07:37:32.224Z,18.09
2022-09-26T07:38:34.598Z,18.35
2022-09-26T07:39:37.774Z,18.58
2022-09-26T07:40:43.244Z,18.74
2022-09-26T07:41:46.110Z,18.66
2022-09-26T07:43:09.282Z,18.28
2022-09-26T07:45:51.139Z,17.20
2022-09-26T07:47:11.258Z,16.79
2022-09-26T07:48:31.930Z,16.70
2022-09-26T07:50:23.342Z,17.57
2022-09-26T07:51:40.007Z,18.12
2022-09-26T07:52:48.178Z,18.54
2022-09-26T07:53:49.825Z,18.83
2022-09-26T07:55:12.632Z,19.15
2022-09-26T07:56:26.128Z,19.32
2022-09-26T07:57:35.453Z,19.08
2022-09-26T07:58:50.576Z,18.56
2022-09-26T08:00:40.260Z,17.71
2022-09-26T08:02:30.577Z,17.08
2022-09-26T08:03:33.169Z,16.77
2022-09-26T08:04:45.286Z,16.59
2022-09-26T08:05:47.067Z,16.82
2022-09-26T08:06:50.193Z,17.29
2022-09-26T08:07:51.961Z,17.79
2022-09-26T08:09:12.087Z,18.42
2022-09-26T08:10:33.671Z,18.95
2022-09-26T08:11:55.857Z,19.38
2022-09-26T08:13:16.284Z,19.74
2022-09-26T08:14:37.476Z,19.97
2022-09-26T08:16:01.951Z,19.72
2022-09-26T08:17:04.183Z,19.29
2022-09-26T08:18:06.025Z,18.91
2022-09-26T08:19:17.179Z,18.57
2022-09-26T08:20:19.873Z,18.22
2022-09-26T08:21:23.148Z,17.99
2022-09-26T08:22:28.856Z,17.78
2022-09-26T08:23:30.712Z,17.81
2022-09-26T08:24:53.377Z,18.36
2022-09-26T08:26:09.763Z,19.00
2022-09-26T08:27:22.716Z,19.50
2022-09-26T08:28:28.524Z,19.91
2022-09-26T08:29:34.147Z,20.20
2022-09-26T08:30:37.150Z,20.12
2022-09-26T08:31:40.069Z,19.80
2022-09-26T08:32:44.454Z,19.42
2022-09-26T08:33:49.191Z,19.07
2022-09-26T08:34:52.567Z,18.76
2022-09-26T08:36:12.668Z,18.45
2022-09-26T08:38:02.797Z,18.09
2022-09-26T08:39:13.315Z,17.87
2022-09-26T08:41:14.273Z,17.90
2022-09-26T08:42:58.842Z,18.70
2022-09-26T08:44:34.382Z,19.38
2022-09-26T08:46:12.590Z,20.01
2022-09-26T08:47:34.742Z,20.37
2022-09-26T08:49:16.629Z,20.22
2022-09-26T08:50:32.699Z,19.72
2022-09-26T08:51:42.108Z,19.30
2022-09-26T08:53:10.406Z,18.96
2022-09-26T08:54:34.977Z,18.57
2022-09-26T08:55:43.437Z,18.26
2022-09-26T08:57:05.878Z,18.04
2022-09-26T08:58:15.285Z,17.82
2022-09-26T08:59:29.585Z,17.84
2022-09-26T09:00:34.425Z,18.34
2022-09-26T09:01:45.178Z,18.97
2022-09-26T09:03:04.065Z,19.56
2022-09-26T09:04:44.812Z,20.08
2022-09-26T09:05:54.590Z,20.58
2022-09-26T09:07:11.927Z,20.69
2022-09-26T09:08:22.765Z,20.41
2022-09-26T09:10:24.085Z,19.72
2022-09-26T09:11:51.091Z,19.32
2022-09-26T09:13:14.889Z,19.07
2022-09-26T09:14:40.309Z,18.82
2022-09-26T09:16:12.716Z,18.61
2022-09-26T09:17:43.027Z,18.50
2022-09-26T09:19:30.737Z,18.97
2022-09-26T09:21:09.190Z,19.97
2022-09-26T09:22:48.920Z,20.64
2022-09-26T09:24:14.123Z,21.15
2022-09-26T09:25:29.598Z,21.06
2022-09-26T09:28:10.466Z,20.26
2022-09-26T09:29:35.632Z,19.97
2022-09-26T09:31:02.184Z,19.63
2022-09-26T09:32:32.337Z,19.43
2022-09-26T09:33:58.789Z,19.28
2022-09-26T09:35:29.346Z,19.18
2022-09-26T09:36:57.777Z,19.07
2022-09-26T09:39:05.792Z,18.93
2022-09-26T09:40:35.695Z,18.88
2022-09-26T09:41:53.729Z,18.85
2022-09-26T09:43:13.767Z,18.81
2022-09-26T09:44:34.149Z,18.90
2022-09-26T09:45:48.301Z,19.48
2022-09-26T09:46:51.493Z,20.16
2022-09-26T09:47:53.524Z,20.69
2022-09-26T09:49:09.375Z,21.11
2022-09-26T09:50:17.662Z,21.20
2022-09-26T09:51:25.225Z,20.96
2022-09-26T09:52:43.027Z,20.64
2022-09-26T09:54:12.714Z,20.27
2022-09-26T09:55:38.682Z,19.89
2022-09-26T09:57:17.226Z,19.59
2022-09-26T09:58:18.885Z,19.32
2022-09-26T09:59:42.373Z,19.19
2022-09-26T10:01:03.758Z,19.03
2022-09-26T10:02:40.321Z,18.89
2022-09-26T10:04:05.370Z,18.74
2022-09-26T10:05:45.296Z,18.64
2022-09-26T10:06:52.629Z,18.51
2022-09-26T10:07:59.337Z,18.43
2022-09-26T10:09:54.176Z,18.44
2022-09-26T10:11:42.399Z,19.22
2022-09-26T10:13:27.270Z,20.36
2022-09-26T10:15:02.388Z,21.05
2022-09-26T10:16:23.788Z,21.34
2022-09-26T10:17:31.199Z,21.14
2022-09-26T10:19:00.821Z,20.83
2022-09-26T10:20:05.414Z,20.49
2022-09-26T10:21:16.198Z,20.28
2022-09-26T10:22:37.340Z,20.12
2022-09-26T10:23:46.805Z,19.96
2022-09-26T10:25:08.608Z,19.87
2022-09-26T10:26:13.727Z,19.81
2022-09-26T10:27:38.222Z,19.77
2022-09-26T10:28:57.980Z,19.71
2022-09-26T10:30:02.117Z,19.68
2022-09-26T10:31:10.623Z,19.65
2022-09-26T10:32:45.855Z,19.56
2022-09-26T10:34:24.284Z,19.50
2022-09-26T10:35:46.601Z,19.44
2022-09-26T10:36:50.801Z,19.39
2022-09-26T10:38:06.203Z,19.35
2022-09-26T10:39:35.386Z,19.31
2022-09-26T10:40:51.158Z,19.26
2022-09-26T10:41:58.461Z,19.22
2022-09-26T10:43:21.999Z,19.18
2022-09-26T10:44:28.978Z,19.15
2022-09-26T10:46:16.469Z,19.11
2022-09-26T10:47:38.152Z,19.06
2022-09-26T10:48:48.900Z,19.02
2022-09-26T10:50:17.687Z,18.95
2022-09-26T10:51:45.524Z,18.89
2022-09-26T10:52:57.634Z,18.84
2022-09-26T10:54:16.322Z,18.80
2022-09-26T10:55:29.240Z,18.76
2022-09-26T10:56:41.646Z,18.73
2022-09-26T10:57:48.664Z,18.70
2022-09-26T10:58:52.180Z,18.67
2022-09-26T10:59:59.457Z,18.62
2022-09-26T11:01:01.517Z,18.58
2022-09-26T11:02:05.490Z,18.53
2022-09-26T11:03:16.409Z,18.48
2022-09-26T11:05:05.442Z,18.44
2022-09-26T11:06:34.925Z,18.43
2022-09-26T11:08:38.263Z,18.40
2022-09-26T11:10:34.251Z,18.38
2022-09-26T11:11:48.035Z,18.36
2022-09-26T11:13:00.777Z,18.35
2022-09-26T11:14:07.546Z,18.35
2022-09-26T11:15:13.129Z,18.36
2022-09-26T11:16:20.300Z,18.40
2022-09-26T11:17:47.894Z,18.80
2022-09-26T11:19:07.873Z,19.64
2022-09-26T11:20:35.485Z,20.55
2022-09-26T11:22:08.033Z,21.39
2022-09-26T11:23:17.681Z,21.81
2022-09-26T11:24:37.947Z,21.68
2022-09-26T11:25:58.160Z,21.33
2022-09-26T11:27:10.671Z,20.98
2022-09-26T11:28:34.407Z,20.71
2022-09-26T11:30:21.811Z,20.36
2022-09-26T11:31:42.948Z,20.23
2022-09-26T11:33:17.536Z,20.08
2022-09-26T11:35:03.102Z,19.93
2022-09-26T11:36:28.802Z,19.84
2022-09-26T11:37:45.668Z,19.73
2022-09-26T11:38:55.972Z,19.65
2022-09-26T11:40:27.170Z,19.57
2022-09-26T11:41:38.720Z,19.48
2022-09-26T11:43:02.252Z,19.40
2022-09-26T11:44:35.715Z,19.33
2022-09-26T11:46:17.390Z,19.22
2022-09-26T11:48:17.022Z,19.13
2022-09-26T11:50:50.325Z,18.99
2022-09-26T11:52:29.610Z,18.90
2022-09-26T11:54:09.517Z,18.84
2022-09-26T11:55:24.283Z,18.80
2022-09-26T11:56:47.860Z,18.78
2022-09-26T11:57:55.464Z,18.75
2022-09-26T11:59:31.557Z,18.74
2022-09-26T12:01:16.971Z,18.74
2022-09-26T12:03:06.813Z,18.75
2022-09-26T12:04:57.941Z,18.74
2022-09-26T12:06:01.282Z,18.72
2022-09-26T12:07:22.354Z,18.69
2022-09-26T12:09:05.074Z,18.68
2022-09-26T12:10:33.049Z,18.67
2022-09-26T12:11:51.159Z,18.65
2022-09-26T12:13:17.211Z,18.65
2022-09-26T12:14:38.984Z,18.64
2022-09-26T12:16:07.001Z,18.65
2022-09-26T12:17:18.801Z,18.66
2022-09-26T12:18:43.543Z,18.67
2022-09-26T12:20:03.110Z,18.68
2022-09-26T12:21:28.846Z,18.69
2022-09-26T12:22:49.756Z,18.69
2022-09-26T12:24:31.178Z,18.71
2022-09-26T12:25:46.222Z,18.72
2022-09-26T12:27:04.256Z,18.75
2022-09-26T12:28:27.578Z,18.78
2022-09-26T12:29:46.933Z,18.80
2022-09-26T12:30:58.870Z,18.81
2022-09-26T12:32:27.347Z,18.83
2022-09-26T12:33:49.738Z,18.85
2022-09-26T12:35:32.002Z,18.87
2022-09-26T12:36:54.562Z,18.91
2022-09-26T12:38:20.662Z,18.92
2022-09-26T12:39:40.947Z,18.95
2022-09-26T12:40:53.716Z,18.99
2022-09-26T12:42:13.882Z,19.07
2022-09-26T12:43:44.642Z,19.16
2022-09-26T12:45:20.082Z,19.28
2022-09-26T12:46:59.253Z,19.38
2022-09-26T12:48:35.768Z,19.49
2022-09-26T12:50:08.183Z,19.61
2022-09-26T12:51:32.767Z,19.81
2022-09-26T12:53:02.917Z,20.04
2022-09-26T12:54:40.213Z,20.24
2022-09-26T12:55:47.542Z,20.39
2022-09-26T12:57:00.966Z,20.47
2022-09-26T12:58:37.957Z,20.55
2022-09-26T13:00:12.562Z,20.63
2022-09-26T13:01:44.952Z,20.72
2022-09-26T13:03:10.479Z,20.81
2022-09-26T13:04:39.956Z,20.91
2022-09-26T13:06:09.575Z,21.04
2022-09-26T13:07:42.342Z,21.17
2022-09-26T13:09:24.115Z,21.25
2022-09-26T13:10:40.906Z,21.26
2022-09-26T13:11:59.517Z,21.26
2022-09-26T13:13:47.674Z,21.22
2022-09-26T13:15:00.803Z,21.16
2022-09-26T13:16:27.555Z,21.11
2022-09-26T13:17:46.042Z,21.05
2022-09-26T13:18:56.551Z,20.98
2022-09-26T13:20:14.643Z,20.92
2022-09-26T13:21:27.077Z,20.84
2022-09-26T13:22:44.357Z,20.77
2022-09-26T13:24:01.124Z,20.69
2022-09-26T13:25:11.498Z,20.63
2022-09-26T13:26:43.725Z,20.60
2022-09-26T13:28:09.207Z,20.57
2022-09-26T13:29:26.999Z,20.56
2022-09-26T13:30:35.692Z,20.53
2022-09-26T13:31:56.106Z,20.50
2022-09-26T13:33:20.853Z,20.47
2022-09-26T13:34:37.498Z,20.44
2022-09-26T13:35:47.791Z,20.42
2022-09-26T13:36:51.620Z,20.39
2022-09-26T13:38:15.427Z,20.37
2022-09-26T13:39:29.948Z,20.34
2022-09-26T13:40:55.569Z,20.31
2022-09-26T13:42:17.908Z,20.30
2022-09-26T13:43:47.675Z,20.30
2022-09-26T13:45:02.458Z,20.28
2022-09-26T13:46:20.317Z,20.25
2022-09-26T13:47:41.457Z,20.23
2022-09-26T13:49:01.116Z,20.20
2022-09-26T13:50:23.305Z,20.18
2022-09-26T13:51:40.136Z,20.15
2022-09-26T13:53:09.961Z,20.10
2022-09-26T13:54:27.853Z,20.03
2022-09-26T13:55:30.335Z,19.97
2022-09-26T13:56:35.085Z,19.92
2022-09-26T13:58:06.914Z,19.88
2022-09-26T13:59:14.736Z,19.83
2022-09-26T14:00:31.475Z,19.79
2022-09-26T14:01:33.668Z,19.72
2022-09-26T14:02:35.429Z,19.67
2022-09-26T14:03:38.918Z,19.62
2022-09-26T14:04:40.727Z,19.56
2022-09-26T14:05:42.246Z,19.51
2022-09-26T14:07:24.084Z,19.46
2022-09-26T14:08:44.246Z,19.37
2022-09-26T14:10:04.001Z,19.33
2022-09-26T14:11:12.166Z,19.27
2022-09-26T14:12:20.226Z,19.22
2022-09-26T14:13:37.261Z,19.17
2022-09-26T14:14:46.298Z,19.12
2022-09-26T14:15:48.250Z,19.07
2022-09-26T14:16:53.679Z,19.01
2022-09-26T14:18:08.457Z,18.95
2022-09-26T14:19:18.848Z,18.88
2022-09-26T14:20:27.293Z,18.81
2022-09-26T14:21:39.811Z,18.74
2022-09-26T14:22:52.641Z,18.64
2022-09-26T14:24:32.047Z,18.55
2022-09-26T14:25:45.770Z,18.34
2022-09-26T14:27:26.093Z,18.20
2022-09-26T14:28:34.929Z,18.00
2022-09-26T14:29:39.340Z,17.85
2022-09-26T14:31:13.303Z,17.72
2022-09-26T14:32:43.465Z,17.51
2022-09-26T14:33:46.101Z,17.32
2022-09-26T14:34:57.172Z,17.19
2022-09-26T14:36:25.535Z,17.04
2022-09-26T14:37:41.484Z,17.24
2022-09-26T14:38:48.406Z,17.88
2022-09-26T14:40:34.517Z,18.50
2022-09-26T14:41:36.627Z,19.30
2022-09-26T14:42:51.756Z,19.64
2022-09-26T14:44:02.573Z,19.78
2022-09-26T14:45:17.558Z,19.50
2022-09-26T14:46:25.475Z,19.05
2022-09-26T14:47:40.206Z,18.65
2022-09-26T14:48:43.231Z,18.24
2022-09-26T14:49:58.049Z,17.96
2022-09-26T14:51:11.707Z,17.68
2022-09-26T14:52:20.385Z,17.44
2022-09-26T14:53:34.044Z,17.24
2022-09-26T14:54:40.830Z,17.06
2022-09-26T14:56:02.997Z,17.10
2022-09-26T14:57:08.319Z,17.65
2022-09-26T14:58:28.902Z,18.24
2022-09-26T14:59:42.453Z,18.91
2022-09-26T15:00:49.693Z,19.38
2022-09-26T15:02:40.567Z,19.71
2022-09-26T15:03:43.183Z,20.08
2022-09-26T15:04:51.745Z,19.91
2022-09-26T15:05:53.427Z,19.51
2022-09-26T15:07:01.092Z,19.09
2022-09-26T15:08:03.075Z,18.68
2022-09-26T15:09:11.334Z,18.32
2022-09-26T15:10:13.251Z,17.98
2022-09-26T15:11:30.200Z,17.73
2022-09-26T15:12:48.202Z,17.46
2022-09-26T15:13:52.570Z,17.33
2022-09-26T15:15:15.801Z,17.62
2022-09-26T15:16:29.204Z,18.32
2022-09-26T15:17:40.459Z,18.93
2022-09-26T15:18:50.060Z,19.42
2022-09-26T15:19:57.622Z,19.81
2022-09-26T15:21:12.027Z,20.12
2022-09-26T15:22:18.845Z,20.16
2022-09-26T15:23:31.674Z,19.84
2022-09-26T15:24:36.684Z,19.36
2022-09-26T15:25:38.820Z,18.94
2022-09-26T15:26:43.324Z,18.57
2022-09-26T15:27:56.943Z,18.22
2022-09-26T15:29:00.277Z,17.90
2022-09-26T15:30:22.759Z,17.65
2022-09-26T15:31:38.017Z,17.47
2022-09-26T15:32:40.237Z,17.82
2022-09-26T15:33:42.148Z,18.32
2022-09-26T15:34:44.659Z,18.83
2022-09-26T15:35:54.195Z,19.25
2022-09-26T15:36:59.313Z,19.64
2022-09-26T15:38:12.099Z,19.92
2022-09-26T15:39:31.975Z,20.13
2022-09-26T15:40:33.853Z,19.87
2022-09-26T15:42:03.284Z,19.48
2022-09-26T15:43:12.489Z,18.91
2022-09-26T15:44:23.556Z,18.52
2022-09-26T15:45:33.589Z,18.15
2022-09-26T15:46:35.703Z,17.87
2022-09-26T15:47:43.298Z,17.65
2022-09-26T15:48:45.126Z,17.75
2022-09-26T15:49:47.263Z,18.17
2022-09-26T15:50:57.360Z,18.69
2022-09-26T15:51:59.170Z,19.20
2022-09-26T15:53:28.058Z,19.58
2022-09-26T15:54:33.046Z,20.02
2022-09-26T15:55:45.479Z,20.20
2022-09-26T15:56:50.156Z,20.02
2022-09-26T15:57:57.136Z,19.62
2022-09-26T15:59:26.389Z,19.17
2022-09-26T16:00:36.370Z,18.61